Strona główna
METAR-TAF:

METAR-TAF

Lotnisko :

Nowy Jork, Nowy Jork, Stany Zjednoczone

Szerokość geograficzna: 40-42-04N, Długość geograficzna: 074-00-32W, wysokość: 2 m

Aktualna obserwacja pogody

Raport powstał 16 minut temu, godzina 11:27 UTC
Cisza
Temperatura 22°C
Wilgotność 94%
Ciśnienie 1011 hPa
Widzialność: 4.0 km
Rozproszone chmury na wysokości 700 ft
Przerywane chmury na wysokości 1300 ft
Zachmurzenie całkowite na wysokości 2000 ft
zamglenie

METAR: KJRB 251127Z AUTO 00000KT 2 1/2SM BR SCT007 BKN013 OVC020 22/21 A2984 RMK AO2 VIS 1 1/2V5 LTG DSNT E TSE1059RAB05E15 P0017

czas: 07:43 (11:43 UTC)


TAF: brakujący

Obserwacja i prognoza pogody dla ponad 4000 lotnisk (raport METAR i TAF).

Dostępne stacje oznaczono żółtymi i czerwonymi punktami na mapie.

Najedź kursorem aby zobaczyć nazwę stacji.

Kliknij aby zobaczyć obserwacje i prognozy pogody.

Aby zmienić mapę: kliknij na zielony przycisk z czarnym krzyżykiem, aby powiększyć; na zielony przycisk z myślnikiem, aby pomniejszyć; na zielone strzałki, aby przejść do map sąsiednich.


METAR-TAF: